createdAt,value
2018-12-12T00:00:39.156Z,46.60
2018-12-12T00:05:35.968Z,47.00
2018-12-12T00:10:30.676Z,48.00
2018-12-12T00:15:25.322Z,45.70
2018-12-12T00:20:19.790Z,46.40
2018-12-12T00:25:14.252Z,44.80
2018-12-12T00:30:08.841Z,43.60
2018-12-12T00:35:03.467Z,44.60
2018-12-12T00:39:57.909Z,44.70
2018-12-12T00:44:52.438Z,44.50
2018-12-12T00:49:47.028Z,45.30
2018-12-12T00:54:41.968Z,46.10
2018-12-12T00:59:36.421Z,46.00
2018-12-12T01:04:30.876Z,45.50
2018-12-12T01:09:25.397Z,46.50
2018-12-12T01:14:19.873Z,45.60
2018-12-12T01:19:15.349Z,46.80
2018-12-12T01:24:09.767Z,47.10
2018-12-12T01:29:04.205Z,47.40
2018-12-12T01:33:58.657Z,47.30
2018-12-12T01:38:53.097Z,47.00
2018-12-12T01:43:47.530Z,47.80
2018-12-12T01:48:41.985Z,46.40
2018-12-12T01:53:36.521Z,44.40
2018-12-12T01:58:31.000Z,44.80
2018-12-12T02:03:25.640Z,43.40
2018-12-12T02:08:20.255Z,45.50
2018-12-12T02:13:25.958Z,44.10
2018-12-12T02:18:20.425Z,43.50
2018-12-12T02:23:14.854Z,44.30
2018-12-12T02:28:09.313Z,45.00
2018-12-12T02:33:04.078Z,46.20
2018-12-12T02:37:58.641Z,46.30
2018-12-12T02:42:53.080Z,45.70
2018-12-12T02:47:47.537Z,45.80
2018-12-12T02:52:42.037Z,46.10
2018-12-12T02:57:36.476Z,46.80
2018-12-12T03:02:31.290Z,45.60
2018-12-12T03:07:25.714Z,46.60
2018-12-12T03:12:20.171Z,45.10
2018-12-12T03:17:14.599Z,46.60
2018-12-12T03:22:09.072Z,46.70
2018-12-12T03:27:03.529Z,45.60
2018-12-12T03:31:57.993Z,45.40
2018-12-12T03:36:52.476Z,44.00
2018-12-12T03:41:46.960Z,44.90
2018-12-12T03:46:41.476Z,44.50
2018-12-12T03:51:36.021Z,45.60
2018-12-12T03:56:32.250Z,46.50
2018-12-12T04:01:26.765Z,46.70
2018-12-12T04:06:22.374Z,46.70
2018-12-12T04:11:16.857Z,46.20
2018-12-12T04:16:11.739Z,46.10
2018-12-12T04:21:06.640Z,44.70
2018-12-12T04:26:01.123Z,44.40
2018-12-12T04:30:55.586Z,43.80
2018-12-12T04:35:50.081Z,44.00
2018-12-12T04:40:44.549Z,44.00
2018-12-12T04:45:39.052Z,43.80
2018-12-12T04:50:34.909Z,44.40
2018-12-12T04:55:29.432Z,44.60
2018-12-12T05:00:24.884Z,45.80
2018-12-12T05:05:19.489Z,44.50
2018-12-12T05:10:13.980Z,44.50
2018-12-12T05:15:08.565Z,45.80
2018-12-12T05:20:03.063Z,47.40
2018-12-12T05:24:57.537Z,47.80
2018-12-12T05:29:52.492Z,47.40
2018-12-12T05:34:46.969Z,46.40
2018-12-12T05:39:42.501Z,44.60
2018-12-12T05:44:37.032Z,45.90
2018-12-12T05:49:31.503Z,46.50
2018-12-12T05:54:26.035Z,46.60
2018-12-12T05:59:20.485Z,46.80
2018-12-12T06:04:15.109Z,46.90
2018-12-12T06:09:09.901Z,45.50
2018-12-12T06:14:04.432Z,44.40
2018-12-12T06:18:58.971Z,43.10
2018-12-12T06:23:53.416Z,43.90
2018-12-12T06:28:47.984Z,44.50
2018-12-12T06:33:42.464Z,44.70
2018-12-12T06:38:36.998Z,45.30
2018-12-12T06:43:37.256Z,46.30
2018-12-12T06:48:31.741Z,45.40
2018-12-12T06:53:26.218Z,46.50
2018-12-12T06:58:20.689Z,45.50
2018-12-12T07:03:15.539Z,44.10
2018-12-12T07:08:10.033Z,44.30
2018-12-12T07:13:04.489Z,44.50
2018-12-12T07:17:59.095Z,45.20
2018-12-12T07:22:53.573Z,43.90
2018-12-12T07:27:48.027Z,44.40
2018-12-12T07:32:43.528Z,44.10
2018-12-12T07:37:38.026Z,44.50
2018-12-12T07:42:32.516Z,44.70
2018-12-12T07:47:32.547Z,45.50
2018-12-12T07:52:44.866Z,45.20
2018-12-12T07:57:39.354Z,45.30
2018-12-12T08:02:33.826Z,44.30
2018-12-12T08:07:28.292Z,44.50
2018-12-12T08:12:22.785Z,44.50
2018-12-12T08:17:17.310Z,45.10
2018-12-12T08:22:11.815Z,45.20
2018-12-12T08:27:06.424Z,45.90
2018-12-12T08:32:00.892Z,44.80
2018-12-12T08:36:55.361Z,44.60
2018-12-12T08:41:49.875Z,45.30
2018-12-12T08:46:45.223Z,44.90
2018-12-12T08:51:39.754Z,45.40
2018-12-12T08:56:34.209Z,45.70
2018-12-12T09:01:29.113Z,45.00
2018-12-12T09:06:23.557Z,45.50
2018-12-12T09:11:18.031Z,46.40
2018-12-12T09:16:12.612Z,47.40
2018-12-12T09:21:07.126Z,48.40
2018-12-12T09:26:01.581Z,48.50
2018-12-12T09:30:56.059Z,49.30
2018-12-12T09:35:52.593Z,49.00
2018-12-12T09:40:47.245Z,49.00
2018-12-12T09:45:42.781Z,49.30
2018-12-12T09:50:37.461Z,49.60
2018-12-12T09:55:34.027Z,49.80
2018-12-12T10:00:28.501Z,50.10
2018-12-12T10:05:23.005Z,50.60
2018-12-12T10:10:17.445Z,50.30
2018-12-12T10:15:11.906Z,49.80
2018-12-12T10:20:07.001Z,49.50
2018-12-12T10:25:01.541Z,49.20
2018-12-12T10:29:56.992Z,48.80
2018-12-12T10:34:51.524Z,48.90
2018-12-12T10:39:46.258Z,49.60
2018-12-12T10:44:40.753Z,50.50
2018-12-12T10:49:35.222Z,53.00
2018-12-12T10:54:29.687Z,52.10
2018-12-12T10:59:24.129Z,53.00
2018-12-12T11:04:19.648Z,52.40
2018-12-12T11:09:14.226Z,53.70
2018-12-12T11:14:08.740Z,52.60
2018-12-12T11:19:03.220Z,52.70
2018-12-12T11:23:57.709Z,52.40
2018-12-12T11:28:52.192Z,52.80
2018-12-12T11:33:50.441Z,53.70
2018-12-12T11:38:43.194Z,55.00
2018-12-12T11:43:37.772Z,54.80
2018-12-12T11:48:32.907Z,54.80
2018-12-12T11:53:27.785Z,54.30
2018-12-12T11:58:22.406Z,54.00
2018-12-12T12:03:17.002Z,54.10
2018-12-12T12:08:11.827Z,53.60
2018-12-12T12:13:06.956Z,52.70
2018-12-12T12:18:01.632Z,52.30
2018-12-12T12:22:56.472Z,50.70
2018-12-12T12:27:51.583Z,49.30
2018-12-12T12:32:46.046Z,47.10
2018-12-12T12:37:40.493Z,44.40
2018-12-12T12:42:35.500Z,42.90
2018-12-12T12:47:30.292Z,40.00
2018-12-12T12:52:24.788Z,38.80
2018-12-12T12:57:19.944Z,39.00
2018-12-12T13:02:14.534Z,38.00
2018-12-12T13:07:09.054Z,39.80
2018-12-12T13:12:05.628Z,41.20
2018-12-12T13:17:00.186Z,43.40
2018-12-12T13:21:54.645Z,44.20
2018-12-12T13:26:53.438Z,45.40
2018-12-12T13:31:45.667Z,46.50
2018-12-12T13:36:40.321Z,46.80
2018-12-12T13:41:41.392Z,47.70
2018-12-12T13:46:38.634Z,48.60
2018-12-12T13:51:37.314Z,49.50
2018-12-12T13:56:32.179Z,50.90
2018-12-12T14:01:26.614Z,52.50
2018-12-12T14:06:21.020Z,53.70
2018-12-12T14:11:15.440Z,54.90
2018-12-12T14:16:10.878Z,56.30
2018-12-12T14:21:05.285Z,57.20
2018-12-12T14:25:59.635Z,58.40
2018-12-12T14:30:54.120Z,60.80
2018-12-12T14:35:48.533Z,64.20
2018-12-12T14:40:43.055Z,69.40
2018-12-12T14:45:38.709Z,69.30
2018-12-12T14:50:33.161Z,69.30
2018-12-12T14:55:28.394Z,68.40
2018-12-12T15:00:23.771Z,69.00
2018-12-12T15:05:18.604Z,70.00
2018-12-12T15:10:13.008Z,72.10
2018-12-12T15:15:07.428Z,73.70
2018-12-12T15:20:01.926Z,74.90
2018-12-12T15:24:56.581Z,76.20
2018-12-12T15:29:51.681Z,76.20
2018-12-12T15:34:46.106Z,77.40
2018-12-12T15:39:40.545Z,78.10
2018-12-12T15:44:34.936Z,79.30
2018-12-12T15:49:29.340Z,80.70
2018-12-12T15:54:23.833Z,82.10
2018-12-12T15:59:18.408Z,82.60
2018-12-12T16:04:13.421Z,83.80
2018-12-12T16:09:08.287Z,85.00
2018-12-12T16:14:04.849Z,86.50
2018-12-12T16:18:59.623Z,87.30
2018-12-12T16:23:54.036Z,87.90
2018-12-12T16:28:49.001Z,88.10
2018-12-12T16:33:45.078Z,88.10
2018-12-12T16:38:39.461Z,88.20
2018-12-12T16:43:33.894Z,88.30
2018-12-12T16:48:30.348Z,88.70
2018-12-12T16:53:24.827Z,89.30
2018-12-12T16:58:19.320Z,90.00
2018-12-12T17:03:13.721Z,90.30
2018-12-12T17:08:08.116Z,90.60
2018-12-12T17:13:03.595Z,91.20
2018-12-12T17:17:58.700Z,91.80
2018-12-12T17:22:53.164Z,92.20
2018-12-12T17:27:47.631Z,92.60
2018-12-12T17:32:46.738Z,93.20
2018-12-12T17:37:41.534Z,93.30
2018-12-12T17:42:38.172Z,93.30
2018-12-12T17:47:32.650Z,93.40
2018-12-12T17:52:27.187Z,93.70
2018-12-12T17:57:23.941Z,94.80
2018-12-12T18:02:18.731Z,94.70
2018-12-12T18:07:30.440Z,95.20
2018-12-12T18:12:25.966Z,95.70
2018-12-12T18:17:21.038Z,95.90
2018-12-12T18:22:16.658Z,95.80
2018-12-12T18:27:13.810Z,95.80
2018-12-12T18:32:08.485Z,95.90
2018-12-12T18:37:21.801Z,95.80
2018-12-12T18:42:16.360Z,95.90
2018-12-12T18:47:15.925Z,96.10
2018-12-12T18:52:11.127Z,96.10
2018-12-12T18:57:05.704Z,96.20
2018-12-12T19:02:00.345Z,96.20
2018-12-12T19:06:55.706Z,96.30
2018-12-12T19:11:51.356Z,96.50
2018-12-12T19:16:45.891Z,96.70
2018-12-12T19:21:40.527Z,96.80
2018-12-12T19:26:35.146Z,96.80
2018-12-12T19:31:29.800Z,96.90
2018-12-12T19:36:24.513Z,97.00
2018-12-12T19:41:19.903Z,97.20
2018-12-12T19:46:14.781Z,97.40
2018-12-12T19:51:09.832Z,97.70
2018-12-12T19:56:04.822Z,97.70
2018-12-12T20:00:59.610Z,97.90
2018-12-12T20:05:54.861Z,97.90
2018-12-12T20:10:49.589Z,98.10
2018-12-12T20:15:46.370Z,98.70
2018-12-12T20:20:42.081Z,98.90
2018-12-12T20:25:36.705Z,98.80
2018-12-12T20:30:35.292Z,99.00
2018-12-12T20:35:28.611Z,99.10
2018-12-12T20:40:23.422Z,99.30
2018-12-12T20:45:18.314Z,99.50
2018-12-12T20:50:13.037Z,99.50
2018-12-12T20:55:07.648Z,99.60
2018-12-12T21:00:06.655Z,99.70
2018-12-12T21:05:02.796Z,99.80
2018-12-12T21:09:58.533Z,99.90
2018-12-12T21:14:53.168Z,99.90
2018-12-12T21:19:48.845Z,99.90
2018-12-12T21:24:43.970Z,99.90
2018-12-12T21:29:38.409Z,99.90
2018-12-12T21:34:34.433Z,99.90
2018-12-12T21:39:29.537Z,99.90
2018-12-12T21:44:24.654Z,99.90
2018-12-12T21:49:19.516Z,99.90
2018-12-12T21:54:14.854Z,99.90
2018-12-12T21:59:10.537Z,99.90
2018-12-12T22:04:06.667Z,99.90
2018-12-12T22:09:01.485Z,99.90
2018-12-12T22:14:00.897Z,99.90
2018-12-12T22:18:55.330Z,99.90
2018-12-12T22:23:49.962Z,99.90
2018-12-12T22:28:44.379Z,99.90
2018-12-12T22:33:39.076Z,99.90
2018-12-12T22:38:34.193Z,99.90
2018-12-12T22:43:32.075Z,99.90
2018-12-12T22:48:29.784Z,99.90
2018-12-12T22:53:24.172Z,99.90
2018-12-12T22:58:25.587Z,99.90
2018-12-12T23:03:22.360Z,99.90
2018-12-12T23:08:20.477Z,99.90
2018-12-12T23:13:15.939Z,99.90
2018-12-12T23:18:12.475Z,99.90
2018-12-12T23:23:07.004Z,99.90
2018-12-12T23:28:01.415Z,99.90
2018-12-12T23:32:56.092Z,99.90
2018-12-12T23:37:50.489Z,99.90
2018-12-12T23:42:44.992Z,99.90
2018-12-12T23:47:39.397Z,99.90
2018-12-12T23:52:33.852Z,99.90
2018-12-12T23:57:29.396Z,99.90
